createdAt,value
2019-01-16T00:01:45.107Z,95625.39
2019-01-16T00:04:15.178Z,95630.80
2019-01-16T00:12:26.316Z,95629.52
2019-01-16T00:20:29.961Z,95633.72
2019-01-16T00:23:08.646Z,95621.84
2019-01-16T00:26:02.304Z,95620.98
2019-01-16T00:28:41.465Z,95619.17
2019-01-16T00:31:13.393Z,95617.14
2019-01-16T00:33:57.320Z,95617.41
2019-01-16T00:39:16.816Z,95618.62
2019-01-16T00:44:40.304Z,95609.14
2019-01-16T00:50:14.328Z,95621.59
2019-01-16T00:52:53.626Z,95619.80
2019-01-16T00:55:28.240Z,95611.42
2019-01-16T01:00:38.291Z,95614.24
2019-01-16T01:03:14.724Z,95608.66
2019-01-16T01:06:04.813Z,95608.40
2019-01-16T01:11:16.864Z,95609.42
2019-01-16T01:13:54.740Z,95603.37
2019-01-16T01:16:23.835Z,95606.77
2019-01-16T01:18:53.686Z,95611.70
2019-01-16T01:21:22.817Z,95606.48
2019-01-16T01:26:43.937Z,95604.70
2019-01-16T01:32:13.793Z,95603.18
2019-01-16T01:35:11.635Z,95606.03
2019-01-16T01:37:59.564Z,95602.64
2019-01-16T01:40:30.550Z,95601.86
2019-01-16T01:43:03.684Z,95595.10
2019-01-16T01:45:39.228Z,95591.42
2019-01-16T01:48:16.675Z,95594.66
2019-01-16T01:50:57.562Z,95590.81
2019-01-16T01:53:40.177Z,95589.80
2019-01-16T01:56:15.803Z,95589.05
2019-01-16T02:01:45.444Z,95578.20
2019-01-16T02:07:13.103Z,95585.52
2019-01-16T02:12:27.327Z,95574.58
2019-01-16T02:15:19.658Z,95570.41
2019-01-16T02:17:56.187Z,95571.33
2019-01-16T02:43:07.775Z,95546.76
2019-01-16T02:45:37.140Z,95537.05
2019-01-16T02:48:18.049Z,95535.96
2019-01-16T02:53:40.960Z,95527.01
2019-01-16T02:56:20.921Z,95527.45
2019-01-16T02:58:53.485Z,95522.14
2019-01-16T03:01:24.537Z,95518.20
2019-01-16T03:04:00.045Z,95512.33
2019-01-16T03:06:30.107Z,95518.60
2019-01-16T03:14:30.769Z,95509.02
2019-01-16T03:17:05.356Z,95509.44
2019-01-16T03:19:39.709Z,95510.34
2019-01-16T03:22:13.697Z,95502.67
2019-01-16T03:24:59.511Z,95501.63
2019-01-16T03:27:30.943Z,95503.47
2019-01-16T03:30:01.734Z,95498.39
2019-01-16T03:32:31.742Z,95499.83
2019-01-16T03:37:40.884Z,95493.59
2019-01-16T03:43:00.776Z,95484.64
2019-01-16T03:45:29.854Z,95484.27
2019-01-16T03:48:24.528Z,95483.95
2019-01-16T03:51:01.736Z,95481.16
2019-01-16T03:53:33.484Z,95478.56
2019-01-16T04:02:00.102Z,95472.49
2019-01-16T04:04:29.163Z,95470.34
2019-01-16T04:06:58.645Z,95465.17
2019-01-16T04:09:33.302Z,95465.64
2019-01-16T04:15:09.353Z,95465.51
2019-01-16T04:20:21.592Z,95468.68
2019-01-16T04:28:19.970Z,95468.96
2019-01-16T04:30:55.052Z,95462.92
2019-01-16T04:33:29.666Z,95461.99
2019-01-16T04:38:37.892Z,95464.03
2019-01-16T04:41:21.840Z,95460.34
2019-01-16T04:43:58.356Z,95456.83
2019-01-16T04:46:37.399Z,95454.63
2019-01-16T04:49:11.969Z,95448.49
2019-01-16T04:54:18.719Z,95446.92
2019-01-16T05:05:26.503Z,95444.50
2019-01-16T05:10:43.222Z,95446.77
2019-01-16T05:27:28.030Z,95439.85
2019-01-16T05:32:37.112Z,95438.26
2019-01-16T05:43:26.396Z,95429.64
2019-01-16T05:46:16.219Z,95429.00
2019-01-16T05:48:46.583Z,95429.02
2019-01-16T05:51:30.581Z,95427.41
2019-01-16T05:54:24.996Z,95425.92
2019-01-16T05:59:49.255Z,95423.06
2019-01-16T06:02:21.044Z,95419.47
2019-01-16T06:05:23.468Z,95418.44
2019-01-16T06:08:06.436Z,95416.52
2019-01-16T06:10:40.990Z,95410.81
2019-01-16T06:15:56.042Z,95411.34
2019-01-16T06:18:26.945Z,95406.86
2019-01-16T06:24:14.400Z,95413.33
2019-01-16T06:27:02.821Z,95409.88
2019-01-16T06:29:31.938Z,95405.23
2019-01-16T06:34:58.656Z,95410.75
2019-01-16T06:43:26.856Z,95403.17
2019-01-16T06:45:58.251Z,95398.84
2019-01-16T06:48:33.679Z,95394.70
2019-01-16T06:53:45.364Z,95395.89
2019-01-16T06:56:17.692Z,95399.83
2019-01-16T06:58:49.368Z,95402.74
2019-01-16T07:01:31.020Z,95394.80
2019-01-16T07:04:03.169Z,95403.77
2019-01-16T07:09:48.704Z,95404.86
2019-01-16T07:15:04.811Z,95399.51
2019-01-16T07:17:39.449Z,95392.19
2019-01-16T07:20:23.491Z,95398.23
2019-01-16T07:22:52.553Z,95390.77
2019-01-16T07:25:47.946Z,95386.41
2019-01-16T07:28:18.954Z,95379.48
2019-01-16T07:33:58.564Z,95374.21
2019-01-16T07:36:32.679Z,95374.75
2019-01-16T07:42:27.216Z,95371.33
2019-01-16T07:44:56.307Z,95371.92
2019-01-16T07:47:36.118Z,95367.48
2019-01-16T07:50:08.307Z,95364.92
2019-01-16T07:52:41.948Z,95361.70
2019-01-16T07:55:13.031Z,95354.10
2019-01-16T08:00:50.255Z,95349.21
2019-01-16T08:03:24.807Z,95339.42
2019-01-16T08:08:56.898Z,95345.73
2019-01-16T08:19:50.626Z,95348.31
2019-01-16T08:22:25.974Z,95349.03
2019-01-16T08:24:55.726Z,95357.06
2019-01-16T08:27:30.546Z,95359.28
2019-01-16T08:35:38.224Z,95346.49
2019-01-16T08:38:32.615Z,95341.05
2019-01-16T08:41:14.731Z,95333.03
2019-01-16T08:46:25.958Z,95334.89
2019-01-16T08:51:43.683Z,95328.63
2019-01-16T08:54:15.106Z,95329.33
2019-01-16T08:56:45.619Z,95325.41
2019-01-16T08:59:36.838Z,95326.13
2019-01-16T09:02:21.312Z,95323.58
2019-01-16T09:04:52.832Z,95312.22
2019-01-16T09:07:25.756Z,95315.53
2019-01-16T09:09:55.686Z,95309.05
2019-01-16T09:15:34.744Z,95321.41
2019-01-16T09:18:01.323Z,95317.93
2019-01-16T09:20:40.088Z,95303.14
2019-01-16T09:28:48.142Z,95305.26
2019-01-16T09:31:27.168Z,95301.98
2019-01-16T09:34:02.525Z,95288.06
2019-01-16T09:36:34.251Z,95294.00
2019-01-16T09:39:08.148Z,95293.89
2019-01-16T09:41:50.114Z,95286.27
2019-01-16T09:50:02.964Z,95277.72
2019-01-16T09:52:38.150Z,95272.92
2019-01-16T09:58:03.765Z,95272.00
2019-01-16T10:03:15.351Z,95264.50
2019-01-16T10:08:41.238Z,95253.86
2019-01-16T10:11:10.291Z,95247.86
2019-01-16T10:13:47.637Z,95240.36
2019-01-16T10:18:55.847Z,95235.19
2019-01-16T10:21:34.435Z,95232.85
2019-01-16T10:24:05.643Z,95226.17
2019-01-16T10:26:37.730Z,95226.20
2019-01-16T10:32:01.281Z,95228.41
2019-01-16T10:34:37.274Z,95210.10
2019-01-16T10:37:13.438Z,95216.88
2019-01-16T10:39:55.689Z,95207.17
2019-01-16T10:42:29.698Z,95197.70
2019-01-16T10:45:05.759Z,95193.55
2019-01-16T10:47:34.308Z,95203.38
2019-01-16T10:50:02.836Z,95188.19
2019-01-16T10:52:45.237Z,95191.00
2019-01-16T10:58:16.389Z,95190.45
2019-01-16T11:00:47.559Z,95182.77
2019-01-16T11:06:12.662Z,95169.09
2019-01-16T11:08:58.094Z,95165.50
2019-01-16T11:11:26.985Z,95158.39
2019-01-16T11:16:58.345Z,95149.27
2019-01-16T11:19:32.302Z,95150.12
2019-01-16T11:22:06.518Z,95147.56
2019-01-16T11:24:40.550Z,95147.16
2019-01-16T11:27:29.789Z,95134.72
2019-01-16T11:30:06.234Z,95131.49
2019-01-16T11:32:34.750Z,95126.23
2019-01-16T11:35:19.192Z,95121.06
2019-01-16T11:41:01.019Z,95122.18
2019-01-16T11:46:32.455Z,95106.44
2019-01-16T11:49:11.539Z,95100.72
2019-01-16T11:51:45.914Z,95095.92
2019-01-16T11:54:20.033Z,95092.30
2019-01-16T11:56:58.458Z,95087.52
2019-01-16T11:59:34.317Z,95080.81
2019-01-16T12:02:23.179Z,95075.08
2019-01-16T12:04:51.723Z,95079.16
2019-01-16T12:07:24.933Z,95073.98
2019-01-16T12:13:02.773Z,95074.38
2019-01-16T12:15:37.716Z,95067.68
2019-01-16T12:18:23.206Z,95060.73
2019-01-16T12:21:03.226Z,95052.03
2019-01-16T12:26:30.582Z,95049.46
2019-01-16T12:32:00.798Z,95051.01
2019-01-16T12:37:38.151Z,95042.14
2019-01-16T12:40:12.250Z,95041.13
2019-01-16T12:42:45.761Z,95038.80
2019-01-16T12:45:14.277Z,95031.03
2019-01-16T12:47:45.291Z,95025.55
2019-01-16T12:50:15.293Z,95020.34
2019-01-16T12:52:54.743Z,95018.99
2019-01-16T12:58:26.442Z,95009.48
2019-01-16T13:00:57.709Z,95012.01
2019-01-16T13:03:28.771Z,95006.31
2019-01-16T13:09:00.349Z,94997.16
2019-01-16T13:11:32.658Z,94995.28
2019-01-16T13:14:21.990Z,94997.45
2019-01-16T13:16:53.074Z,94984.64
2019-01-16T13:19:23.074Z,94982.77
2019-01-16T13:21:57.031Z,94989.46
2019-01-16T13:33:20.470Z,94966.16
2019-01-16T13:35:54.792Z,94965.69
2019-01-16T13:50:27.710Z,94949.59
2019-01-16T13:52:57.543Z,94947.75
2019-01-16T13:55:29.814Z,94944.56
2019-01-16T13:58:10.551Z,94939.86
2019-01-16T14:00:39.097Z,94944.81
2019-01-16T14:03:23.648Z,94940.51
2019-01-16T14:05:58.743Z,94933.60
2019-01-16T14:08:29.075Z,94934.52
2019-01-16T14:10:57.633Z,94934.74
2019-01-16T14:13:36.059Z,94926.13
2019-01-16T14:16:23.684Z,94924.41
2019-01-16T14:19:11.887Z,94920.67
2019-01-16T14:21:46.244Z,94922.27
2019-01-16T14:24:16.753Z,94916.55
2019-01-16T14:26:45.263Z,94920.30
2019-01-16T14:32:26.110Z,94914.14
2019-01-16T14:44:11.745Z,94908.27
2019-01-16T14:46:40.617Z,94901.94
2019-01-16T14:52:10.419Z,94896.78
2019-01-16T14:57:50.840Z,94896.22
2019-01-16T15:00:31.073Z,94900.84
2019-01-16T15:02:59.575Z,94896.92
2019-01-16T15:05:38.141Z,94894.90
2019-01-16T15:08:20.510Z,94895.11
2019-01-16T15:10:59.016Z,94891.76
2019-01-16T15:13:31.067Z,94891.74
2019-01-16T15:19:15.030Z,94878.12
2019-01-16T15:28:03.386Z,94870.38
2019-01-16T15:31:03.318Z,94871.61
2019-01-16T15:33:38.507Z,94868.81
2019-01-16T15:36:08.598Z,94872.23
2019-01-16T15:38:45.844Z,94875.99
2019-01-16T15:44:16.891Z,94864.97
2019-01-16T15:47:10.019Z,94864.88
2019-01-16T15:50:05.982Z,94863.45
2019-01-16T15:52:41.127Z,94857.09
2019-01-16T15:55:10.630Z,94848.40
2019-01-16T15:57:50.888Z,94844.89
2019-01-16T16:00:19.435Z,94844.14
2019-01-16T16:12:32.998Z,94830.09
2019-01-16T16:15:10.876Z,94831.00
2019-01-16T16:17:40.147Z,94828.67
2019-01-16T16:23:31.900Z,94828.13
2019-01-16T16:26:22.603Z,94830.48
2019-01-16T16:29:04.210Z,94830.19
2019-01-16T16:31:34.272Z,94828.38
2019-01-16T16:34:18.575Z,94835.16
2019-01-16T16:36:52.672Z,94831.84
2019-01-16T16:42:29.726Z,94824.34
2019-01-16T16:45:03.600Z,94822.66
2019-01-16T16:47:38.586Z,94821.66
2019-01-16T16:50:10.069Z,94821.24
2019-01-16T16:55:36.607Z,94809.84
2019-01-16T16:58:07.546Z,94808.94
2019-01-16T17:03:36.094Z,94806.97
2019-01-16T17:06:27.398Z,94808.13
2019-01-16T17:09:35.140Z,94797.20
2019-01-16T17:12:33.395Z,94794.87
2019-01-16T17:18:15.364Z,94792.52
2019-01-16T17:23:45.612Z,94786.76
2019-01-16T17:29:31.416Z,94777.98
2019-01-16T17:32:16.300Z,94775.67
2019-01-16T17:34:54.723Z,94776.86
2019-01-16T17:37:46.361Z,94778.88
2019-01-16T17:40:27.633Z,94778.64
2019-01-16T17:43:12.552Z,94774.30
2019-01-16T17:45:46.680Z,94777.44
2019-01-16T17:51:38.715Z,94772.26
2019-01-16T17:54:19.798Z,94775.23
2019-01-16T17:56:53.992Z,94775.42
2019-01-16T18:02:34.410Z,94770.02
2019-01-16T18:05:32.041Z,94770.13
2019-01-16T18:08:05.306Z,94768.48
2019-01-16T18:16:48.345Z,94768.66
2019-01-16T18:19:49.898Z,94775.04
2019-01-16T18:22:24.045Z,94772.71
2019-01-16T18:25:27.079Z,94770.22
2019-01-16T18:28:09.308Z,94774.59
2019-01-16T18:33:37.986Z,94775.94
2019-01-16T18:36:35.787Z,94776.88
2019-01-16T18:39:07.194Z,94773.50
2019-01-16T18:44:35.013Z,94772.94
2019-01-16T18:47:11.935Z,94776.06
2019-01-16T18:49:48.407Z,94778.81
2019-01-16T18:52:36.749Z,94774.98
2019-01-16T18:58:44.646Z,94771.27
2019-01-16T19:01:44.758Z,94766.82
2019-01-16T19:04:23.354Z,94766.78
2019-01-16T19:09:51.957Z,94763.59
2019-01-16T19:12:37.109Z,94760.72
2019-01-16T19:15:16.279Z,94762.89
2019-01-16T19:17:46.647Z,94761.60
2019-01-16T19:20:25.959Z,94763.67
2019-01-16T19:22:59.338Z,94753.92
2019-01-16T19:25:37.053Z,94752.44
2019-01-16T19:31:37.099Z,94744.28
2019-01-16T19:34:10.051Z,94744.69
2019-01-16T19:36:39.070Z,94739.23
2019-01-16T19:42:37.426Z,94743.23
2019-01-16T19:45:07.341Z,94742.28
2019-01-16T19:47:52.653Z,94744.04
2019-01-16T19:50:26.656Z,94738.89
2019-01-16T19:53:04.749Z,94741.61
2019-01-16T19:55:33.496Z,94741.50
2019-01-16T19:58:25.930Z,94738.42
2019-01-16T20:01:09.714Z,94741.52
2019-01-16T20:03:40.077Z,94747.84
2019-01-16T20:06:25.475Z,94735.19
2019-01-16T20:09:13.371Z,94730.48
2019-01-16T20:11:42.796Z,94736.58
2019-01-16T20:14:13.251Z,94734.14
2019-01-16T20:16:46.040Z,94735.52
2019-01-16T20:22:12.766Z,94735.95
2019-01-16T20:24:46.953Z,94731.16
2019-01-16T20:30:17.423Z,94726.84
2019-01-16T20:32:47.453Z,94725.23
2019-01-16T20:35:25.470Z,94722.19
2019-01-16T20:38:12.714Z,94728.60
2019-01-16T20:40:41.241Z,94733.58
2019-01-16T20:43:29.086Z,94725.39
2019-01-16T20:46:03.909Z,94721.77
2019-01-16T20:48:33.000Z,94716.91
2019-01-16T20:51:04.318Z,94715.20
2019-01-16T20:53:38.662Z,94718.67
2019-01-16T20:56:17.818Z,94724.17
2019-01-16T20:58:53.926Z,94725.48
2019-01-16T21:01:34.131Z,94728.38
2019-01-16T21:04:08.183Z,94721.70
2019-01-16T21:06:42.765Z,94716.45
2019-01-16T21:09:23.984Z,94714.22
2019-01-16T21:15:05.597Z,94709.00
2019-01-16T21:17:40.964Z,94707.39
2019-01-16T21:23:07.525Z,94703.05
2019-01-16T21:25:38.438Z,94703.55
2019-01-16T21:28:11.246Z,94701.30
2019-01-16T21:30:44.848Z,94695.83
2019-01-16T21:33:43.522Z,94695.41
2019-01-16T21:36:52.855Z,94690.88
2019-01-16T21:39:22.464Z,94690.06
2019-01-16T21:41:51.938Z,94688.90
2019-01-16T21:44:29.663Z,94680.91
2019-01-16T21:47:04.224Z,94690.33
2019-01-16T21:49:51.618Z,94682.84
2019-01-16T21:52:26.016Z,94676.97
2019-01-16T21:55:18.517Z,94674.89
2019-01-16T21:57:52.737Z,94674.50
2019-01-16T22:00:26.914Z,94670.14
2019-01-16T22:03:01.196Z,94670.87
2019-01-16T22:05:32.209Z,94670.92
2019-01-16T22:08:06.307Z,94672.52
2019-01-16T22:10:54.454Z,94665.37
2019-01-16T22:13:35.745Z,94660.50
2019-01-16T22:16:09.699Z,94660.73
2019-01-16T22:18:57.303Z,94658.55
2019-01-16T22:21:25.828Z,94657.48
2019-01-16T22:26:55.070Z,94661.09
2019-01-16T22:29:37.564Z,94655.36
2019-01-16T22:32:18.982Z,94656.36
2019-01-16T22:37:53.081Z,94649.95
2019-01-16T22:40:31.918Z,94646.04
2019-01-16T22:46:09.991Z,94642.70
2019-01-16T22:48:52.875Z,94643.97
2019-01-16T22:51:26.315Z,94638.66
2019-01-16T22:56:56.045Z,94634.88
2019-01-16T22:59:34.019Z,94633.73
2019-01-16T23:02:05.039Z,94632.36
2019-01-16T23:04:46.953Z,94629.95
2019-01-16T23:07:55.531Z,94631.34
2019-01-16T23:13:21.271Z,94626.47
2019-01-16T23:15:51.096Z,94616.28
2019-01-16T23:18:24.296Z,94608.31
2019-01-16T23:20:58.491Z,94614.17
2019-01-16T23:23:42.298Z,94608.20
2019-01-16T23:26:11.546Z,94607.32
2019-01-16T23:34:55.167Z,94597.54
2019-01-16T23:37:35.402Z,94595.01
2019-01-16T23:40:04.219Z,94600.16
2019-01-16T23:42:38.247Z,94598.39
2019-01-16T23:45:07.726Z,94592.72
2019-01-16T23:47:40.676Z,94592.42
2019-01-16T23:50:34.533Z,94582.03
2019-01-16T23:53:04.748Z,94579.10
2019-01-16T23:55:45.981Z,94579.35
2019-01-16T23:58:25.606Z,94579.51
